sensor_id;sensor_type;location;lat;lon;timestamp;P1;durP1;ratioP1;P2;durP2;ratioP2
77544;SDS011;66672;50.328;7.610;2023-07-09T00:01:36;9.80;;;3.97;;
77544;SDS011;66672;50.328;7.610;2023-07-09T00:04:02;7.18;;;4.07;;
77544;SDS011;66672;50.328;7.610;2023-07-09T00:06:27;10.05;;;4.30;;
77544;SDS011;66672;50.328;7.610;2023-07-09T00:08:52;7.70;;;4.60;;
77544;SDS011;66672;50.328;7.610;2023-07-09T00:11:17;6.87;;;4.20;;
77544;SDS011;66672;50.328;7.610;2023-07-09T00:13:42;7.72;;;4.13;;
77544;SDS011;66672;50.328;7.610;2023-07-09T00:16:12;9.57;;;3.70;;
77544;SDS011;66672;50.328;7.610;2023-07-09T00:18:37;7.10;;;4.00;;
77544;SDS011;66672;50.328;7.610;2023-07-09T00:21:02;5.90;;;3.43;;
77544;SDS011;66672;50.328;7.610;2023-07-09T00:23:27;8.50;;;3.90;;
77544;SDS011;66672;50.328;7.610;2023-07-09T00:25:54;8.07;;;3.80;;
77544;SDS011;66672;50.328;7.610;2023-07-09T00:28:20;7.90;;;3.92;;
77544;SDS011;66672;50.328;7.610;2023-07-09T00:30:45;6.72;;;3.70;;
77544;SDS011;66672;50.328;7.610;2023-07-09T00:33:11;8.32;;;3.72;;
77544;SDS011;66672;50.328;7.610;2023-07-09T00:35:43;7.68;;;4.03;;
77544;SDS011;66672;50.328;7.610;2023-07-09T00:38:14;6.85;;;3.70;;
77544;SDS011;66672;50.328;7.610;2023-07-09T00:40:44;8.40;;;3.85;;
77544;SDS011;66672;50.328;7.610;2023-07-09T00:43:10;7.40;;;4.05;;
77544;SDS011;66672;50.328;7.610;2023-07-09T00:45:39;7.93;;;3.67;;
77544;SDS011;66672;50.328;7.610;2023-07-09T00:48:04;9.57;;;4.43;;
77544;SDS011;66672;50.328;7.610;2023-07-09T00:50:34;7.75;;;3.72;;
77544;SDS011;66672;50.328;7.610;2023-07-09T00:53:00;8.23;;;4.13;;
77544;SDS011;66672;50.328;7.610;2023-07-09T00:55:32;8.38;;;3.85;;
77544;SDS011;66672;50.328;7.610;2023-07-09T00:58:00;8.75;;;3.55;;
77544;SDS011;66672;50.328;7.610;2023-07-09T01:00:31;7.70;;;3.70;;
77544;SDS011;66672;50.328;7.610;2023-07-09T01:03:00;8.68;;;3.50;;
77544;SDS011;66672;50.328;7.610;2023-07-09T01:05:27;7.13;;;3.50;;
77544;SDS011;66672;50.328;7.610;2023-07-09T01:07:52;7.97;;;4.00;;
77544;SDS011;66672;50.328;7.610;2023-07-09T01:10:18;5.80;;;3.25;;
77544;SDS011;66672;50.328;7.610;2023-07-09T01:12:45;8.27;;;3.60;;
77544;SDS011;66672;50.328;7.610;2023-07-09T01:15:12;5.82;;;3.50;;
77544;SDS011;66672;50.328;7.610;2023-07-09T01:17:37;8.13;;;3.65;;
77544;SDS011;66672;50.328;7.610;2023-07-09T01:20:02;6.65;;;3.38;;
77544;SDS011;66672;50.328;7.610;2023-07-09T01:22:28;7.38;;;3.30;;
77544;SDS011;66672;50.328;7.610;2023-07-09T01:24:59;7.80;;;3.53;;
77544;SDS011;66672;50.328;7.610;2023-07-09T01:27:32;6.88;;;3.30;;
77544;SDS011;66672;50.328;7.610;2023-07-09T01:29:58;5.65;;;2.90;;
77544;SDS011;66672;50.328;7.610;2023-07-09T01:32:24;7.03;;;3.33;;
77544;SDS011;66672;50.328;7.610;2023-07-09T01:34:51;7.43;;;3.42;;
77544;SDS011;66672;50.328;7.610;2023-07-09T01:37:18;7.95;;;3.63;;
77544;SDS011;66672;50.328;7.610;2023-07-09T01:39:44;7.43;;;3.40;;
77544;SDS011;66672;50.328;7.610;2023-07-09T01:42:09;6.87;;;3.43;;
77544;SDS011;66672;50.328;7.610;2023-07-09T01:44:35;6.90;;;3.25;;
77544;SDS011;66672;50.328;7.610;2023-07-09T01:47:01;5.40;;;3.35;;
77544;SDS011;66672;50.328;7.610;2023-07-09T01:49:28;6.70;;;3.80;;
77544;SDS011;66672;50.328;7.610;2023-07-09T01:51:54;9.32;;;4.13;;
77544;SDS011;66672;50.328;7.610;2023-07-09T01:54:20;7.88;;;3.80;;
77544;SDS011;66672;50.328;7.610;2023-07-09T01:56:45;8.07;;;3.65;;
77544;SDS011;66672;50.328;7.610;2023-07-09T01:59:10;7.80;;;4.17;;
77544;SDS011;66672;50.328;7.610;2023-07-09T02:01:36;8.70;;;3.97;;
77544;SDS011;66672;50.328;7.610;2023-07-09T02:04:03;7.70;;;4.05;;
77544;SDS011;66672;50.328;7.610;2023-07-09T02:06:28;9.75;;;4.43;;
77544;SDS011;66672;50.328;7.610;2023-07-09T02:08:56;8.43;;;4.40;;
77544;SDS011;66672;50.328;7.610;2023-07-09T02:11:21;6.73;;;4.17;;
77544;SDS011;66672;50.328;7.610;2023-07-09T02:13:47;7.78;;;3.95;;
77544;SDS011;66672;50.328;7.610;2023-07-09T02:16:12;7.53;;;3.97;;
77544;SDS011;66672;50.328;7.610;2023-07-09T02:18:37;9.25;;;3.90;;
77544;SDS011;66672;50.328;7.610;2023-07-09T02:21:02;6.87;;;3.87;;
77544;SDS011;66672;50.328;7.610;2023-07-09T02:23:27;8.10;;;3.13;;
77544;SDS011;66672;50.328;7.610;2023-07-09T02:25:53;7.07;;;3.80;;
77544;SDS011;66672;50.328;7.610;2023-07-09T02:28:18;7.57;;;3.80;;
77544;SDS011;66672;50.328;7.610;2023-07-09T02:30:44;8.60;;;4.18;;
77544;SDS011;66672;50.328;7.610;2023-07-09T02:33:09;6.85;;;3.67;;
77544;SDS011;66672;50.328;7.610;2023-07-09T02:35:34;6.00;;;3.50;;
77544;SDS011;66672;50.328;7.610;2023-07-09T02:38:00;6.35;;;4.00;;
77544;SDS011;66672;50.328;7.610;2023-07-09T02:40:26;7.65;;;3.83;;
77544;SDS011;66672;50.328;7.610;2023-07-09T02:42:51;11.40;;;4.27;;
77544;SDS011;66672;50.328;7.610;2023-07-09T02:45:16;8.20;;;3.90;;
77544;SDS011;66672;50.328;7.610;2023-07-09T02:47:41;7.53;;;3.83;;
77544;SDS011;66672;50.328;7.610;2023-07-09T02:50:06;8.18;;;3.80;;
77544;SDS011;66672;50.328;7.610;2023-07-09T02:52:32;7.88;;;3.95;;
77544;SDS011;66672;50.328;7.610;2023-07-09T02:54:57;7.72;;;4.53;;
77544;SDS011;66672;50.328;7.610;2023-07-09T02:57:22;8.00;;;4.50;;
77544;SDS011;66672;50.328;7.610;2023-07-09T02:59:47;6.22;;;3.85;;
77544;SDS011;66672;50.328;7.610;2023-07-09T03:02:12;6.40;;;3.65;;
77544;SDS011;66672;50.328;7.610;2023-07-09T03:04:37;6.83;;;3.80;;
77544;SDS011;66672;50.328;7.610;2023-07-09T03:07:03;6.97;;;3.97;;
77544;SDS011;66672;50.328;7.610;2023-07-09T03:09:28;8.23;;;4.05;;
77544;SDS011;66672;50.328;7.610;2023-07-09T03:11:53;8.93;;;4.18;;
77544;SDS011;66672;50.328;7.610;2023-07-09T03:14:19;8.50;;;4.40;;
77544;SDS011;66672;50.328;7.610;2023-07-09T03:16:44;8.88;;;3.58;;
77544;SDS011;66672;50.328;7.610;2023-07-09T03:19:09;5.68;;;3.88;;
77544;SDS011;66672;50.328;7.610;2023-07-09T03:21:34;8.57;;;4.18;;
77544;SDS011;66672;50.328;7.610;2023-07-09T03:23:59;8.93;;;4.53;;
77544;SDS011;66672;50.328;7.610;2023-07-09T03:26:25;8.68;;;4.15;;
77544;SDS011;66672;50.328;7.610;2023-07-09T03:28:50;7.10;;;3.80;;
77544;SDS011;66672;50.328;7.610;2023-07-09T03:31:16;6.65;;;3.38;;
77544;SDS011;66672;50.328;7.610;2023-07-09T03:33:41;8.53;;;4.10;;
77544;SDS011;66672;50.328;7.610;2023-07-09T03:36:06;8.03;;;3.30;;
77544;SDS011;66672;50.328;7.610;2023-07-09T03:38:31;6.60;;;3.70;;
77544;SDS011;66672;50.328;7.610;2023-07-09T03:40:57;6.53;;;4.00;;
77544;SDS011;66672;50.328;7.610;2023-07-09T03:43:22;6.13;;;3.42;;
77544;SDS011;66672;50.328;7.610;2023-07-09T03:45:48;9.07;;;3.97;;
77544;SDS011;66672;50.328;7.610;2023-07-09T03:48:14;6.82;;;3.35;;
77544;SDS011;66672;50.328;7.610;2023-07-09T03:50:39;8.25;;;3.88;;
77544;SDS011;66672;50.328;7.610;2023-07-09T03:53:04;6.28;;;3.35;;
77544;SDS011;66672;50.328;7.610;2023-07-09T03:55:30;8.52;;;4.20;;
77544;SDS011;66672;50.328;7.610;2023-07-09T03:57:56;7.63;;;3.47;;
77544;SDS011;66672;50.328;7.610;2023-07-09T04:00:21;5.78;;;3.72;;
77544;SDS011;66672;50.328;7.610;2023-07-09T04:02:46;7.30;;;3.40;;
77544;SDS011;66672;50.328;7.610;2023-07-09T04:05:12;8.45;;;4.18;;
77544;SDS011;66672;50.328;7.610;2023-07-09T04:07:37;8.33;;;4.10;;
77544;SDS011;66672;50.328;7.610;2023-07-09T04:10:02;6.63;;;4.07;;
77544;SDS011;66672;50.328;7.610;2023-07-09T04:12:28;9.38;;;5.10;;
77544;SDS011;66672;50.328;7.610;2023-07-09T04:14:53;6.78;;;4.10;;
77544;SDS011;66672;50.328;7.610;2023-07-09T04:17:18;8.13;;;4.22;;
77544;SDS011;66672;50.328;7.610;2023-07-09T04:19:44;5.88;;;3.67;;
77544;SDS011;66672;50.328;7.610;2023-07-09T04:22:12;6.10;;;3.90;;
77544;SDS011;66672;50.328;7.610;2023-07-09T04:24:37;8.85;;;4.28;;
77544;SDS011;66672;50.328;7.610;2023-07-09T04:27:02;6.83;;;4.20;;
77544;SDS011;66672;50.328;7.610;2023-07-09T04:29:30;6.68;;;4.05;;
77544;SDS011;66672;50.328;7.610;2023-07-09T04:31:58;8.10;;;4.13;;
77544;SDS011;66672;50.328;7.610;2023-07-09T04:34:24;7.93;;;3.80;;
77544;SDS011;66672;50.328;7.610;2023-07-09T04:36:49;9.00;;;4.30;;
77544;SDS011;66672;50.328;7.610;2023-07-09T04:39:14;8.43;;;4.03;;
77544;SDS011;66672;50.328;7.610;2023-07-09T04:41:40;7.18;;;4.50;;
77544;SDS011;66672;50.328;7.610;2023-07-09T04:44:05;7.57;;;4.07;;
77544;SDS011;66672;50.328;7.610;2023-07-09T04:46:30;8.63;;;4.53;;
77544;SDS011;66672;50.328;7.610;2023-07-09T04:48:55;9.93;;;4.60;;
77544;SDS011;66672;50.328;7.610;2023-07-09T04:51:20;8.40;;;4.15;;
77544;SDS011;66672;50.328;7.610;2023-07-09T04:53:45;6.65;;;3.90;;
77544;SDS011;66672;50.328;7.610;2023-07-09T04:56:11;8.07;;;4.35;;
77544;SDS011;66672;50.328;7.610;2023-07-09T04:58:36;6.68;;;3.78;;
77544;SDS011;66672;50.328;7.610;2023-07-09T05:01:01;9.02;;;4.53;;
77544;SDS011;66672;50.328;7.610;2023-07-09T05:03:26;7.53;;;4.47;;
77544;SDS011;66672;50.328;7.610;2023-07-09T05:05:52;6.68;;;4.40;;
77544;SDS011;66672;50.328;7.610;2023-07-09T05:08:17;7.57;;;4.60;;
77544;SDS011;66672;50.328;7.610;2023-07-09T05:13:08;19.73;;;10.90;;
77544;SDS011;66672;50.328;7.610;2023-07-09T05:15:33;17.77;;;9.80;;
77544;SDS011;66672;50.328;7.610;2023-07-09T05:17:58;13.45;;;8.43;;
77544;SDS011;66672;50.328;7.610;2023-07-09T05:20:23;10.80;;;6.60;;
77544;SDS011;66672;50.328;7.610;2023-07-09T05:22:49;12.43;;;6.25;;
77544;SDS011;66672;50.328;7.610;2023-07-09T05:25:15;11.63;;;5.85;;
77544;SDS011;66672;50.328;7.610;2023-07-09T05:27:40;7.50;;;4.57;;
77544;SDS011;66672;50.328;7.610;2023-07-09T05:30:05;10.93;;;5.50;;
77544;SDS011;66672;50.328;7.610;2023-07-09T05:32:30;11.32;;;5.60;;
77544;SDS011;66672;50.328;7.610;2023-07-09T05:34:56;8.05;;;5.35;;
77544;SDS011;66672;50.328;7.610;2023-07-09T05:37:21;7.10;;;4.22;;
77544;SDS011;66672;50.328;7.610;2023-07-09T05:39:46;12.37;;;6.13;;
77544;SDS011;66672;50.328;7.610;2023-07-09T05:42:11;10.25;;;5.35;;
77544;SDS011;66672;50.328;7.610;2023-07-09T05:44:37;9.23;;;5.40;;
77544;SDS011;66672;50.328;7.610;2023-07-09T05:47:02;8.37;;;5.13;;
77544;SDS011;66672;50.328;7.610;2023-07-09T05:49:27;10.18;;;5.07;;
77544;SDS011;66672;50.328;7.610;2023-07-09T05:51:52;7.93;;;4.50;;
77544;SDS011;66672;50.328;7.610;2023-07-09T05:54:17;6.80;;;4.32;;
77544;SDS011;66672;50.328;7.610;2023-07-09T05:56:43;9.02;;;4.88;;
77544;SDS011;66672;50.328;7.610;2023-07-09T05:59:08;7.67;;;4.70;;
77544;SDS011;66672;50.328;7.610;2023-07-09T06:01:34;9.68;;;4.82;;
77544;SDS011;66672;50.328;7.610;2023-07-09T06:04:00;7.88;;;5.13;;
77544;SDS011;66672;50.328;7.610;2023-07-09T06:06:25;8.97;;;4.43;;
77544;SDS011;66672;50.328;7.610;2023-07-09T06:08:51;7.22;;;4.07;;
77544;SDS011;66672;50.328;7.610;2023-07-09T06:11:16;7.97;;;4.30;;
77544;SDS011;66672;50.328;7.610;2023-07-09T06:13:42;6.25;;;3.78;;
77544;SDS011;66672;50.328;7.610;2023-07-09T06:16:08;8.20;;;4.93;;
77544;SDS011;66672;50.328;7.610;2023-07-09T06:18:33;8.85;;;4.60;;
77544;SDS011;66672;50.328;7.610;2023-07-09T06:20:59;8.10;;;4.65;;
77544;SDS011;66672;50.328;7.610;2023-07-09T06:23:25;9.25;;;4.53;;
77544;SDS011;66672;50.328;7.610;2023-07-09T06:25:51;7.20;;;4.32;;
77544;SDS011;66672;50.328;7.610;2023-07-09T06:28:18;6.65;;;4.60;;
77544;SDS011;66672;50.328;7.610;2023-07-09T06:30:44;7.13;;;4.50;;
77544;SDS011;66672;50.328;7.610;2023-07-09T06:33:09;6.88;;;4.57;;
77544;SDS011;66672;50.328;7.610;2023-07-09T06:35:35;7.90;;;4.53;;
77544;SDS011;66672;50.328;7.610;2023-07-09T06:38:00;7.90;;;4.63;;
77544;SDS011;66672;50.328;7.610;2023-07-09T06:40:25;8.98;;;4.97;;
77544;SDS011;66672;50.328;7.610;2023-07-09T06:42:50;8.48;;;4.60;;
77544;SDS011;66672;50.328;7.610;2023-07-09T06:45:16;8.63;;;5.15;;
77544;SDS011;66672;50.328;7.610;2023-07-09T06:47:41;8.40;;;4.95;;
77544;SDS011;66672;50.328;7.610;2023-07-09T06:50:06;8.35;;;4.93;;
77544;SDS011;66672;50.328;7.610;2023-07-09T06:52:31;6.35;;;4.38;;
77544;SDS011;66672;50.328;7.610;2023-07-09T06:54:57;7.07;;;4.80;;
77544;SDS011;66672;50.328;7.610;2023-07-09T06:57:22;9.15;;;4.28;;
77544;SDS011;66672;50.328;7.610;2023-07-09T06:59:47;8.13;;;4.28;;
77544;SDS011;66672;50.328;7.610;2023-07-09T07:02:12;7.30;;;4.70;;
77544;SDS011;66672;50.328;7.610;2023-07-09T07:04:37;9.90;;;6.47;;
77544;SDS011;66672;50.328;7.610;2023-07-09T07:07:03;11.95;;;7.00;;
77544;SDS011;66672;50.328;7.610;2023-07-09T07:09:28;12.00;;;5.53;;
77544;SDS011;66672;50.328;7.610;2023-07-09T07:11:53;7.18;;;4.30;;
77544;SDS011;66672;50.328;7.610;2023-07-09T07:14:18;7.93;;;4.90;;
77544;SDS011;66672;50.328;7.610;2023-07-09T07:16:43;9.20;;;4.60;;
77544;SDS011;66672;50.328;7.610;2023-07-09T07:19:09;8.02;;;4.80;;
77544;SDS011;66672;50.328;7.610;2023-07-09T07:21:34;7.65;;;4.20;;
77544;SDS011;66672;50.328;7.610;2023-07-09T07:24:00;8.35;;;4.50;;
77544;SDS011;66672;50.328;7.610;2023-07-09T07:26:25;7.90;;;4.40;;
77544;SDS011;66672;50.328;7.610;2023-07-09T07:28:50;11.35;;;5.63;;
77544;SDS011;66672;50.328;7.610;2023-07-09T07:31:15;8.48;;;4.97;;
77544;SDS011;66672;50.328;7.610;2023-07-09T07:33:41;8.23;;;4.80;;
77544;SDS011;66672;50.328;7.610;2023-07-09T07:36:07;8.27;;;4.60;;
77544;SDS011;66672;50.328;7.610;2023-07-09T07:38:32;8.90;;;5.22;;
77544;SDS011;66672;50.328;7.610;2023-07-09T07:40:57;8.20;;;4.82;;
77544;SDS011;66672;50.328;7.610;2023-07-09T07:43:22;6.10;;;3.87;;
77544;SDS011;66672;50.328;7.610;2023-07-09T07:45:48;9.57;;;4.33;;
77544;SDS011;66672;50.328;7.610;2023-07-09T07:48:13;9.65;;;4.95;;
77544;SDS011;66672;50.328;7.610;2023-07-09T07:50:38;9.10;;;4.95;;
77544;SDS011;66672;50.328;7.610;2023-07-09T07:53:04;8.75;;;4.80;;
77544;SDS011;66672;50.328;7.610;2023-07-09T07:55:29;9.73;;;4.80;;
77544;SDS011;66672;50.328;7.610;2023-07-09T07:57:55;8.05;;;4.93;;
77544;SDS011;66672;50.328;7.610;2023-07-09T08:00:22;8.48;;;5.28;;
77544;SDS011;66672;50.328;7.610;2023-07-09T08:02:47;10.90;;;5.40;;
77544;SDS011;66672;50.328;7.610;2023-07-09T08:05:12;9.80;;;6.38;;
77544;SDS011;66672;50.328;7.610;2023-07-09T08:07:37;7.83;;;4.87;;
77544;SDS011;66672;50.328;7.610;2023-07-09T08:10:02;7.63;;;4.85;;
77544;SDS011;66672;50.328;7.610;2023-07-09T08:12:28;7.05;;;4.72;;
77544;SDS011;66672;50.328;7.610;2023-07-09T08:14:53;7.95;;;4.50;;
77544;SDS011;66672;50.328;7.610;2023-07-09T08:17:18;8.87;;;4.70;;
77544;SDS011;66672;50.328;7.610;2023-07-09T08:19:44;8.63;;;4.97;;
77544;SDS011;66672;50.328;7.610;2023-07-09T08:22:10;12.07;;;6.25;;
77544;SDS011;66672;50.328;7.610;2023-07-09T08:24:35;8.43;;;5.30;;
77544;SDS011;66672;50.328;7.610;2023-07-09T08:27:00;10.07;;;5.40;;
77544;SDS011;66672;50.328;7.610;2023-07-09T08:29:25;9.98;;;5.50;;
77544;SDS011;66672;50.328;7.610;2023-07-09T08:31:51;7.93;;;4.93;;
77544;SDS011;66672;50.328;7.610;2023-07-09T08:34:16;14.70;;;7.07;;
77544;SDS011;66672;50.328;7.610;2023-07-09T08:36:41;9.88;;;5.43;;
77544;SDS011;66672;50.328;7.610;2023-07-09T08:39:06;10.70;;;6.93;;
77544;SDS011;66672;50.328;7.610;2023-07-09T08:46:42;7.83;;;4.50;;
77544;SDS011;66672;50.328;7.610;2023-07-09T08:49:16;7.88;;;4.78;;
77544;SDS011;66672;50.328;7.610;2023-07-09T08:51:43;9.55;;;4.10;;
77544;SDS011;66672;50.328;7.610;2023-07-09T08:54:10;7.07;;;4.30;;
77544;SDS011;66672;50.328;7.610;2023-07-09T08:56:37;10.68;;;4.93;;
77544;SDS011;66672;50.328;7.610;2023-07-09T08:59:02;14.07;;;6.00;;
77544;SDS011;66672;50.328;7.610;2023-07-09T09:01:29;7.20;;;4.63;;
77544;SDS011;66672;50.328;7.610;2023-07-09T09:04:02;12.15;;;5.45;;
77544;SDS011;66672;50.328;7.610;2023-07-09T09:06:29;9.95;;;6.78;;
77544;SDS011;66672;50.328;7.610;2023-07-09T09:09:57;11.45;;;6.80;;
77544;SDS011;66672;50.328;7.610;2023-07-09T09:14:30;10.37;;;5.60;;
77544;SDS011;66672;50.328;7.610;2023-07-09T09:16:56;6.47;;;4.47;;
77544;SDS011;66672;50.328;7.610;2023-07-09T09:19:23;7.18;;;4.25;;
77544;SDS011;66672;50.328;7.610;2023-07-09T09:21:49;7.95;;;4.03;;
77544;SDS011;66672;50.328;7.610;2023-07-09T09:24:19;7.53;;;4.75;;
77544;SDS011;66672;50.328;7.610;2023-07-09T09:26:45;9.77;;;4.72;;
77544;SDS011;66672;50.328;7.610;2023-07-09T09:29:12;8.27;;;4.80;;
77544;SDS011;66672;50.328;7.610;2023-07-09T09:31:38;9.32;;;4.70;;
77544;SDS011;66672;50.328;7.610;2023-07-09T09:34:03;7.00;;;4.53;;
77544;SDS011;66672;50.328;7.610;2023-07-09T09:36:30;7.57;;;4.93;;
77544;SDS011;66672;50.328;7.610;2023-07-09T09:38:55;8.15;;;4.35;;
77544;SDS011;66672;50.328;7.610;2023-07-09T09:41:21;8.75;;;5.00;;
77544;SDS011;66672;50.328;7.610;2023-07-09T09:43:47;8.98;;;4.72;;
77544;SDS011;66672;50.328;7.610;2023-07-09T09:46:16;8.70;;;4.15;;
77544;SDS011;66672;50.328;7.610;2023-07-09T09:48:44;7.95;;;4.68;;
77544;SDS011;66672;50.328;7.610;2023-07-09T09:51:09;7.38;;;4.28;;
77544;SDS011;66672;50.328;7.610;2023-07-09T09:53:37;8.25;;;4.45;;
77544;SDS011;66672;50.328;7.610;2023-07-09T09:56:04;8.93;;;4.95;;
77544;SDS011;66672;50.328;7.610;2023-07-09T09:58:31;6.85;;;4.10;;
77544;SDS011;66672;50.328;7.610;2023-07-09T10:00:57;9.52;;;4.50;;
77544;SDS011;66672;50.328;7.610;2023-07-09T10:03:35;10.75;;;5.10;;
77544;SDS011;66672;50.328;7.610;2023-07-09T10:06:03;9.30;;;4.07;;
77544;SDS011;66672;50.328;7.610;2023-07-09T10:11:18;7.95;;;4.28;;
77544;SDS011;66672;50.328;7.610;2023-07-09T10:13:45;7.40;;;4.20;;
77544;SDS011;66672;50.328;7.610;2023-07-09T10:22:21;6.38;;;3.92;;
77544;SDS011;66672;50.328;7.610;2023-07-09T10:24:33;8.38;;;3.70;;
77544;SDS011;66672;50.328;7.610;2023-07-09T10:32:06;9.57;;;4.57;;
77544;SDS011;66672;50.328;7.610;2023-07-09T10:34:34;7.68;;;4.20;;
77544;SDS011;66672;50.328;7.610;2023-07-09T10:39:41;7.95;;;4.03;;
77544;SDS011;66672;50.328;7.610;2023-07-09T10:42:10;8.13;;;3.85;;
77544;SDS011;66672;50.328;7.610;2023-07-09T10:44:41;7.22;;;3.65;;
77544;SDS011;66672;50.328;7.610;2023-07-09T10:47:10;6.00;;;3.85;;
77544;SDS011;66672;50.328;7.610;2023-07-09T10:49:38;6.78;;;3.70;;
77544;SDS011;66672;50.328;7.610;2023-07-09T10:52:22;6.40;;;3.70;;
77544;SDS011;66672;50.328;7.610;2023-07-09T10:57:48;6.32;;;3.83;;
77544;SDS011;66672;50.328;7.610;2023-07-09T11:02:42;10.98;;;4.15;;
77544;SDS011;66672;50.328;7.610;2023-07-09T11:05:08;8.43;;;4.00;;
77544;SDS011;66672;50.328;7.610;2023-07-09T11:10:32;7.00;;;3.78;;
77544;SDS011;66672;50.328;7.610;2023-07-09T11:12:59;6.32;;;3.45;;
77544;SDS011;66672;50.328;7.610;2023-07-09T11:15:33;6.38;;;3.85;;
77544;SDS011;66672;50.328;7.610;2023-07-09T11:18:00;7.25;;;3.70;;
77544;SDS011;66672;50.328;7.610;2023-07-09T11:20:27;11.70;;;6.93;;
77544;SDS011;66672;50.328;7.610;2023-07-09T11:22:53;9.35;;;3.83;;
77544;SDS011;66672;50.328;7.610;2023-07-09T11:28:05;8.50;;;3.65;;
77544;SDS011;66672;50.328;7.610;2023-07-09T11:30:31;6.75;;;3.53;;
77544;SDS011;66672;50.328;7.610;2023-07-09T11:32:57;6.95;;;3.55;;
77544;SDS011;66672;50.328;7.610;2023-07-09T11:35:23;7.05;;;3.55;;
77544;SDS011;66672;50.328;7.610;2023-07-09T11:37:48;7.13;;;3.67;;
77544;SDS011;66672;50.328;7.610;2023-07-09T11:40:14;8.20;;;3.67;;
77544;SDS011;66672;50.328;7.610;2023-07-09T11:42:55;7.90;;;3.92;;
77544;SDS011;66672;50.328;7.610;2023-07-09T11:45:28;8.88;;;3.80;;
77544;SDS011;66672;50.328;7.610;2023-07-09T11:48:00;8.43;;;4.10;;
77544;SDS011;66672;50.328;7.610;2023-07-09T11:50:31;5.75;;;3.78;;
77544;SDS011;66672;50.328;7.610;2023-07-09T11:57:54;7.97;;;3.97;;
77544;SDS011;66672;50.328;7.610;2023-07-09T12:00:20;9.20;;;4.28;;
77544;SDS011;66672;50.328;7.610;2023-07-09T12:02:45;6.47;;;3.70;;
77544;SDS011;66672;50.328;7.610;2023-07-09T12:05:10;8.60;;;4.25;;
77544;SDS011;66672;50.328;7.610;2023-07-09T12:07:37;8.93;;;3.80;;
77544;SDS011;66672;50.328;7.610;2023-07-09T12:10:03;6.63;;;3.63;;
77544;SDS011;66672;50.328;7.610;2023-07-09T12:12:28;7.43;;;3.92;;
77544;SDS011;66672;50.328;7.610;2023-07-09T12:14:54;6.43;;;3.78;;
77544;SDS011;66672;50.328;7.610;2023-07-09T12:17:22;6.25;;;3.30;;
77544;SDS011;66672;50.328;7.610;2023-07-09T12:19:50;7.35;;;3.83;;
77544;SDS011;66672;50.328;7.610;2023-07-09T12:22:17;8.40;;;4.25;;
77544;SDS011;66672;50.328;7.610;2023-07-09T12:24:44;6.80;;;3.45;;
77544;SDS011;66672;50.328;7.610;2023-07-09T12:27:20;9.93;;;4.15;;
77544;SDS011;66672;50.328;7.610;2023-07-09T12:29:46;6.35;;;3.45;;
77544;SDS011;66672;50.328;7.610;2023-07-09T12:32:15;9.15;;;3.70;;
77544;SDS011;66672;50.328;7.610;2023-07-09T12:34:41;7.28;;;3.42;;
77544;SDS011;66672;50.328;7.610;2023-07-09T12:37:13;6.38;;;3.33;;
77544;SDS011;66672;50.328;7.610;2023-07-09T12:42:04;8.57;;;4.00;;
77544;SDS011;66672;50.328;7.610;2023-07-09T12:44:31;7.35;;;3.65;;
77544;SDS011;66672;50.328;7.610;2023-07-09T12:46:57;8.65;;;3.67;;
77544;SDS011;66672;50.328;7.610;2023-07-09T12:49:24;7.75;;;3.45;;
77544;SDS011;66672;50.328;7.610;2023-07-09T12:51:49;8.88;;;3.75;;
77544;SDS011;66672;50.328;7.610;2023-07-09T12:54:17;7.10;;;3.90;;
77544;SDS011;66672;50.328;7.610;2023-07-09T12:56:42;5.95;;;3.55;;
77544;SDS011;66672;50.328;7.610;2023-07-09T12:59:19;6.65;;;3.15;;
77544;SDS011;66672;50.328;7.610;2023-07-09T13:01:48;5.82;;;3.30;;
77544;SDS011;66672;50.328;7.610;2023-07-09T13:04:13;8.20;;;3.47;;
77544;SDS011;66672;50.328;7.610;2023-07-09T13:06:38;6.70;;;3.78;;
77544;SDS011;66672;50.328;7.610;2023-07-09T13:09:09;8.35;;;3.80;;
77544;SDS011;66672;50.328;7.610;2023-07-09T13:11:36;7.43;;;3.50;;
77544;SDS011;66672;50.328;7.610;2023-07-09T13:14:03;6.00;;;3.15;;
77544;SDS011;66672;50.328;7.610;2023-07-09T13:16:28;7.88;;;3.72;;
77544;SDS011;66672;50.328;7.610;2023-07-09T13:18:54;7.32;;;3.55;;
77544;SDS011;66672;50.328;7.610;2023-07-09T13:21:20;6.15;;;3.30;;
77544;SDS011;66672;50.328;7.610;2023-07-09T13:23:45;6.38;;;3.28;;
77544;SDS011;66672;50.328;7.610;2023-07-09T13:26:11;7.65;;;3.40;;
77544;SDS011;66672;50.328;7.610;2023-07-09T13:28:37;6.70;;;3.22;;
77544;SDS011;66672;50.328;7.610;2023-07-09T13:31:12;7.83;;;3.67;;
77544;SDS011;66672;50.328;7.610;2023-07-09T13:33:39;7.25;;;3.72;;
77544;SDS011;66672;50.328;7.610;2023-07-09T13:36:05;7.88;;;3.90;;
77544;SDS011;66672;50.328;7.610;2023-07-09T13:38:32;9.75;;;4.00;;
77544;SDS011;66672;50.328;7.610;2023-07-09T13:40:58;8.38;;;3.70;;
77544;SDS011;66672;50.328;7.610;2023-07-09T13:45:51;6.47;;;2.95;;
77544;SDS011;66672;50.328;7.610;2023-07-09T13:48:17;8.80;;;3.60;;
77544;SDS011;66672;50.328;7.610;2023-07-09T13:50:43;8.20;;;3.83;;
77544;SDS011;66672;50.328;7.610;2023-07-09T13:53:16;7.13;;;3.40;;
77544;SDS011;66672;50.328;7.610;2023-07-09T13:55:42;9.15;;;3.08;;
77544;SDS011;66672;50.328;7.610;2023-07-09T13:58:11;7.18;;;3.80;;
77544;SDS011;66672;50.328;7.610;2023-07-09T14:00:37;5.90;;;3.90;;
77544;SDS011;66672;50.328;7.610;2023-07-09T14:03:03;9.80;;;3.75;;
77544;SDS011;66672;50.328;7.610;2023-07-09T14:05:28;7.43;;;3.72;;
77544;SDS011;66672;50.328;7.610;2023-07-09T14:07:53;7.28;;;3.78;;
77544;SDS011;66672;50.328;7.610;2023-07-09T14:10:18;5.90;;;3.85;;
77544;SDS011;66672;50.328;7.610;2023-07-09T14:12:45;8.97;;;3.70;;
77544;SDS011;66672;50.328;7.610;2023-07-09T14:15:12;6.82;;;4.10;;
77544;SDS011;66672;50.328;7.610;2023-07-09T14:17:38;9.93;;;3.60;;
77544;SDS011;66672;50.328;7.610;2023-07-09T14:20:03;8.68;;;4.00;;
77544;SDS011;66672;50.328;7.610;2023-07-09T14:22:36;7.43;;;3.97;;
77544;SDS011;66672;50.328;7.610;2023-07-09T14:25:02;7.18;;;3.92;;
77544;SDS011;66672;50.328;7.610;2023-07-09T14:27:28;9.48;;;4.18;;
77544;SDS011;66672;50.328;7.610;2023-07-09T14:29:54;8.63;;;3.90;;
77544;SDS011;66672;50.328;7.610;2023-07-09T14:32:32;6.85;;;3.67;;
77544;SDS011;66672;50.328;7.610;2023-07-09T14:34:59;6.70;;;3.47;;
77544;SDS011;66672;50.328;7.610;2023-07-09T14:37:24;8.10;;;3.80;;
77544;SDS011;66672;50.328;7.610;2023-07-09T14:39:49;6.63;;;3.53;;
77544;SDS011;66672;50.328;7.610;2023-07-09T14:42:14;9.60;;;4.13;;
77544;SDS011;66672;50.328;7.610;2023-07-09T14:44:41;6.78;;;3.40;;
77544;SDS011;66672;50.328;7.610;2023-07-09T14:47:10;6.78;;;4.07;;
77544;SDS011;66672;50.328;7.610;2023-07-09T14:49:36;6.75;;;3.72;;
77544;SDS011;66672;50.328;7.610;2023-07-09T14:52:01;7.20;;;3.87;;
77544;SDS011;66672;50.328;7.610;2023-07-09T14:54:28;5.85;;;3.70;;
77544;SDS011;66672;50.328;7.610;2023-07-09T14:56:54;10.18;;;4.63;;
77544;SDS011;66672;50.328;7.610;2023-07-09T14:59:20;7.10;;;3.63;;
77544;SDS011;66672;50.328;7.610;2023-07-09T15:01:45;8.77;;;3.70;;
77544;SDS011;66672;50.328;7.610;2023-07-09T15:04:30;7.78;;;4.00;;
77544;SDS011;66672;50.328;7.610;2023-07-09T15:06:56;7.78;;;3.63;;
77544;SDS011;66672;50.328;7.610;2023-07-09T15:09:23;14.38;;;4.00;;
77544;SDS011;66672;50.328;7.610;2023-07-09T15:11:52;11.43;;;4.15;;
77544;SDS011;66672;50.328;7.610;2023-07-09T15:14:18;28.27;;;5.30;;
77544;SDS011;66672;50.328;7.610;2023-07-09T15:16:43;15.90;;;3.90;;
77544;SDS011;66672;50.328;7.610;2023-07-09T15:19:11;8.18;;;2.80;;
77544;SDS011;66672;50.328;7.610;2023-07-09T15:21:37;7.18;;;2.90;;
77544;SDS011;66672;50.328;7.610;2023-07-09T15:24:02;7.22;;;3.17;;
77544;SDS011;66672;50.328;7.610;2023-07-09T15:26:27;9.45;;;4.03;;
77544;SDS011;66672;50.328;7.610;2023-07-09T15:28:52;10.87;;;4.30;;